sensor_id;sensor_type;location;lat;lon;timestamp;temperature;humidity
73547;SHT30;61807;48.384;-4.386;2022-10-16T00:01:24;14.74;81.68
73547;SHT30;61807;48.384;-4.386;2022-10-16T00:03:51;14.74;81.66
73547;SHT30;61807;48.384;-4.386;2022-10-16T00:06:18;14.71;81.61
73547;SHT30;61807;48.384;-4.386;2022-10-16T00:08:44;14.67;81.59
73547;SHT30;61807;48.384;-4.386;2022-10-16T00:11:16;14.67;81.61
73547;SHT30;61807;48.384;-4.386;2022-10-16T00:13:43;14.63;81.64
73547;SHT30;61807;48.384;-4.386;2022-10-16T00:16:09;14.63;81.63
73547;SHT30;61807;48.384;-4.386;2022-10-16T00:18:36;14.63;81.75
73547;SHT30;61807;48.384;-4.386;2022-10-16T00:21:08;14.55;81.77
73547;SHT30;61807;48.384;-4.386;2022-10-16T00:23:34;14.52;81.77
73547;SHT30;61807;48.384;-4.386;2022-10-16T00:26:04;14.51;81.75
73547;SHT30;61807;48.384;-4.386;2022-10-16T00:28:30;14.51;81.83
73547;SHT30;61807;48.384;-4.386;2022-10-16T00:30:55;14.51;81.86
73547;SHT30;61807;48.384;-4.386;2022-10-16T00:33:21;14.47;81.87
73547;SHT30;61807;48.384;-4.386;2022-10-16T00:35:46;14.48;81.93
73547;SHT30;61807;48.384;-4.386;2022-10-16T00:38:12;14.48;82.04
73547;SHT30;61807;48.384;-4.386;2022-10-16T00:40:38;14.47;81.99
73547;SHT30;61807;48.384;-4.386;2022-10-16T00:43:13;14.49;82.06
73547;SHT30;61807;48.384;-4.386;2022-10-16T00:45:39;14.48;82.06
73547;SHT30;61807;48.384;-4.386;2022-10-16T00:48:11;14.47;82.27
73547;SHT30;61807;48.384;-4.386;2022-10-16T00:50:39;14.45;82.20
73547;SHT30;61807;48.384;-4.386;2022-10-16T00:53:08;14.47;82.27
73547;SHT30;61807;48.384;-4.386;2022-10-16T00:55:33;14.45;82.31
73547;SHT30;61807;48.384;-4.386;2022-10-16T00:57:59;14.45;82.32
73547;SHT30;61807;48.384;-4.386;2022-10-16T01:00:26;14.44;82.36
73547;SHT30;61807;48.384;-4.386;2022-10-16T01:02:56;14.47;82.41
73547;SHT30;61807;48.384;-4.386;2022-10-16T01:05:24;14.42;82.52
73547;SHT30;61807;48.384;-4.386;2022-10-16T01:08:27;14.41;82.60
73547;SHT30;61807;48.384;-4.386;2022-10-16T01:12:01;14.41;82.65
73547;SHT30;61807;48.384;-4.386;2022-10-16T01:14:26;14.40;82.72
73547;SHT30;61807;48.384;-4.386;2022-10-16T01:17:03;14.41;82.73
73547;SHT30;61807;48.384;-4.386;2022-10-16T01:22:24;14.38;82.85
73547;SHT30;61807;48.384;-4.386;2022-10-16T01:24:54;14.38;82.84
73547;SHT30;61807;48.384;-4.386;2022-10-16T01:27:31;14.38;82.93
73547;SHT30;61807;48.384;-4.386;2022-10-16T01:30:10;14.37;82.91
73547;SHT30;61807;48.384;-4.386;2022-10-16T01:35:22;14.36;83.10
73547;SHT30;61807;48.384;-4.386;2022-10-16T01:40:32;14.36;83.05
73547;SHT30;61807;48.384;-4.386;2022-10-16T01:45:57;14.36;83.10
73547;SHT30;61807;48.384;-4.386;2022-10-16T01:48:24;14.33;83.14
73547;SHT30;61807;48.384;-4.386;2022-10-16T01:50:55;14.31;83.25
73547;SHT30;61807;48.384;-4.386;2022-10-16T01:53:22;14.30;83.31
73547;SHT30;61807;48.384;-4.386;2022-10-16T01:55:50;14.33;83.25
73547;SHT30;61807;48.384;-4.386;2022-10-16T01:58:17;14.34;83.24
73547;SHT30;61807;48.384;-4.386;2022-10-16T02:00:45;14.31;83.25
73547;SHT30;61807;48.384;-4.386;2022-10-16T02:03:13;14.31;83.23
73547;SHT30;61807;48.384;-4.386;2022-10-16T02:05:53;14.27;83.33
73547;SHT30;61807;48.384;-4.386;2022-10-16T02:08:20;14.26;83.29
73547;SHT30;61807;48.384;-4.386;2022-10-16T02:10:46;14.21;83.31
73547;SHT30;61807;48.384;-4.386;2022-10-16T02:13:35;14.19;83.38
73547;SHT30;61807;48.384;-4.386;2022-10-16T02:16:02;14.16;83.35
73547;SHT30;61807;48.384;-4.386;2022-10-16T02:18:28;14.16;83.47
73547;SHT30;61807;48.384;-4.386;2022-10-16T02:21:02;14.16;83.51
73547;SHT30;61807;48.384;-4.386;2022-10-16T02:23:34;14.16;83.59
73547;SHT30;61807;48.384;-4.386;2022-10-16T02:26:03;14.14;83.58
73547;SHT30;61807;48.384;-4.386;2022-10-16T02:28:38;14.12;83.70
73547;SHT30;61807;48.384;-4.386;2022-10-16T02:31:09;14.09;83.70
73547;SHT30;61807;48.384;-4.386;2022-10-16T02:33:35;14.07;83.68
73547;SHT30;61807;48.384;-4.386;2022-10-16T02:36:03;14.06;83.81
73547;SHT30;61807;48.384;-4.386;2022-10-16T02:38:29;14.05;83.84
73547;SHT30;61807;48.384;-4.386;2022-10-16T02:40:56;14.03;83.84
73547;SHT30;61807;48.384;-4.386;2022-10-16T02:43:21;14.03;83.78
73547;SHT30;61807;48.384;-4.386;2022-10-16T02:45:47;14.05;83.87
73547;SHT30;61807;48.384;-4.386;2022-10-16T02:48:12;14.02;83.86
73547;SHT30;61807;48.384;-4.386;2022-10-16T02:50:37;14.02;84.03
73547;SHT30;61807;48.384;-4.386;2022-10-16T02:53:03;13.97;84.06
73547;SHT30;61807;48.384;-4.386;2022-10-16T02:55:28;14.02;84.14
73547;SHT30;61807;48.384;-4.386;2022-10-16T02:57:54;14.03;84.07
73547;SHT30;61807;48.384;-4.386;2022-10-16T03:00:20;14.03;84.10
73547;SHT30;61807;48.384;-4.386;2022-10-16T03:02:46;14.02;84.11
73547;SHT30;61807;48.384;-4.386;2022-10-16T03:05:13;14.02;84.13
73547;SHT30;61807;48.384;-4.386;2022-10-16T03:07:39;14.02;84.15
73547;SHT30;61807;48.384;-4.386;2022-10-16T03:10:04;14.00;84.14
73547;SHT30;61807;48.384;-4.386;2022-10-16T03:12:30;13.99;84.14
73547;SHT30;61807;48.384;-4.386;2022-10-16T03:14:57;14.02;84.19
73547;SHT30;61807;48.384;-4.386;2022-10-16T03:17:23;13.97;84.24
73547;SHT30;61807;48.384;-4.386;2022-10-16T03:19:48;13.97;84.26
73547;SHT30;61807;48.384;-4.386;2022-10-16T03:22:14;13.99;84.21
73547;SHT30;61807;48.384;-4.386;2022-10-16T03:24:39;13.97;84.36
73547;SHT30;61807;48.384;-4.386;2022-10-16T03:27:05;13.96;84.32
73547;SHT30;61807;48.384;-4.386;2022-10-16T03:29:31;13.95;84.36
73547;SHT30;61807;48.384;-4.386;2022-10-16T03:31:57;13.93;84.38
73547;SHT30;61807;48.384;-4.386;2022-10-16T03:34:22;13.96;84.34
73547;SHT30;61807;48.384;-4.386;2022-10-16T03:36:48;13.93;84.40
73547;SHT30;61807;48.384;-4.386;2022-10-16T03:39:13;13.89;84.48
73547;SHT30;61807;48.384;-4.386;2022-10-16T03:41:39;13.87;84.42
73547;SHT30;61807;48.384;-4.386;2022-10-16T03:44:04;13.85;84.52
73547;SHT30;61807;48.384;-4.386;2022-10-16T03:46:29;13.82;84.57
73547;SHT30;61807;48.384;-4.386;2022-10-16T03:48:55;13.83;84.58
73547;SHT30;61807;48.384;-4.386;2022-10-16T03:51:20;13.79;84.57
73547;SHT30;61807;48.384;-4.386;2022-10-16T03:53:46;13.76;84.61
73547;SHT30;61807;48.384;-4.386;2022-10-16T03:56:11;13.76;84.64
73547;SHT30;61807;48.384;-4.386;2022-10-16T03:58:36;13.73;84.62
73547;SHT30;61807;48.384;-4.386;2022-10-16T04:01:02;13.75;84.68
73547;SHT30;61807;48.384;-4.386;2022-10-16T04:03:27;13.75;84.75
73547;SHT30;61807;48.384;-4.386;2022-10-16T04:05:53;13.75;84.73
73547;SHT30;61807;48.384;-4.386;2022-10-16T04:08:18;13.70;84.71
73547;SHT30;61807;48.384;-4.386;2022-10-16T04:10:44;13.63;84.65
73547;SHT30;61807;48.384;-4.386;2022-10-16T04:13:09;13.59;84.72
73547;SHT30;61807;48.384;-4.386;2022-10-16T04:15:35;13.55;84.86
73547;SHT30;61807;48.384;-4.386;2022-10-16T04:18:00;13.54;84.95
73547;SHT30;61807;48.384;-4.386;2022-10-16T04:20:25;13.51;85.02
73547;SHT30;61807;48.384;-4.386;2022-10-16T04:22:51;13.49;85.03
73547;SHT30;61807;48.384;-4.386;2022-10-16T04:25:16;13.48;85.23
73547;SHT30;61807;48.384;-4.386;2022-10-16T04:27:42;13.44;85.10
73547;SHT30;61807;48.384;-4.386;2022-10-16T04:30:07;13.44;85.13
73547;SHT30;61807;48.384;-4.386;2022-10-16T04:32:33;13.41;85.24
73547;SHT30;61807;48.384;-4.386;2022-10-16T04:34:58;13.41;85.23
73547;SHT30;61807;48.384;-4.386;2022-10-16T04:37:25;13.41;85.22
73547;SHT30;61807;48.384;-4.386;2022-10-16T04:39:51;13.42;85.29
73547;SHT30;61807;48.384;-4.386;2022-10-16T04:42:16;13.42;85.35
73547;SHT30;61807;48.384;-4.386;2022-10-16T04:44:42;13.38;85.30
73547;SHT30;61807;48.384;-4.386;2022-10-16T04:47:07;13.37;85.25
73547;SHT30;61807;48.384;-4.386;2022-10-16T04:49:33;13.35;85.32
73547;SHT30;61807;48.384;-4.386;2022-10-16T04:51:58;13.35;85.26
73547;SHT30;61807;48.384;-4.386;2022-10-16T04:54:23;13.34;85.28
73547;SHT30;61807;48.384;-4.386;2022-10-16T04:56:49;13.31;85.30
73547;SHT30;61807;48.384;-4.386;2022-10-16T04:59:17;13.28;85.32
73547;SHT30;61807;48.384;-4.386;2022-10-16T05:01:43;13.27;85.31
73547;SHT30;61807;48.384;-4.386;2022-10-16T05:04:09;13.25;85.36
73547;SHT30;61807;48.384;-4.386;2022-10-16T05:06:35;13.27;85.40
73547;SHT30;61807;48.384;-4.386;2022-10-16T05:09:00;13.27;85.40
73547;SHT30;61807;48.384;-4.386;2022-10-16T05:11:25;13.25;85.43
73547;SHT30;61807;48.384;-4.386;2022-10-16T05:13:51;13.25;85.39
73547;SHT30;61807;48.384;-4.386;2022-10-16T05:16:16;13.25;85.45
73547;SHT30;61807;48.384;-4.386;2022-10-16T05:18:42;13.25;85.46
73547;SHT30;61807;48.384;-4.386;2022-10-16T05:21:08;13.22;85.43
73547;SHT30;61807;48.384;-4.386;2022-10-16T05:23:33;13.25;85.41
73547;SHT30;61807;48.384;-4.386;2022-10-16T05:25:59;13.24;85.42
73547;SHT30;61807;48.384;-4.386;2022-10-16T05:28:28;13.22;85.52
73547;SHT30;61807;48.384;-4.386;2022-10-16T05:30:55;13.21;85.60
73547;SHT30;61807;48.384;-4.386;2022-10-16T05:33:24;13.21;85.67
73547;SHT30;61807;48.384;-4.386;2022-10-16T05:35:50;13.17;85.62
73547;SHT30;61807;48.384;-4.386;2022-10-16T05:38:17;13.15;85.60
73547;SHT30;61807;48.384;-4.386;2022-10-16T05:40:43;13.12;85.61
73547;SHT30;61807;48.384;-4.386;2022-10-16T05:43:08;13.11;85.61
73547;SHT30;61807;48.384;-4.386;2022-10-16T05:45:34;13.08;85.58
73547;SHT30;61807;48.384;-4.386;2022-10-16T05:47:59;13.07;85.54
73547;SHT30;61807;48.384;-4.386;2022-10-16T05:50:26;13.03;85.49
73547;SHT30;61807;48.384;-4.386;2022-10-16T05:52:51;13.01;85.50
73547;SHT30;61807;48.384;-4.386;2022-10-16T05:55:17;13.00;85.51
73547;SHT30;61807;48.384;-4.386;2022-10-16T05:57:42;12.96;85.47
73547;SHT30;61807;48.384;-4.386;2022-10-16T06:00:08;12.91;85.52
73547;SHT30;61807;48.384;-4.386;2022-10-16T06:02:34;12.89;85.51
73547;SHT30;61807;48.384;-4.386;2022-10-16T06:04:59;12.87;85.54
73547;SHT30;61807;48.384;-4.386;2022-10-16T06:07:25;12.86;85.58
73547;SHT30;61807;48.384;-4.386;2022-10-16T06:09:51;12.86;85.65
73547;SHT30;61807;48.384;-4.386;2022-10-16T06:12:17;12.84;85.66
73547;SHT30;61807;48.384;-4.386;2022-10-16T06:14:42;12.87;85.67
73547;SHT30;61807;48.384;-4.386;2022-10-16T06:17:08;12.86;85.68
73547;SHT30;61807;48.384;-4.386;2022-10-16T06:19:33;12.89;85.62
73547;SHT30;61807;48.384;-4.386;2022-10-16T06:21:58;12.86;85.66
73547;SHT30;61807;48.384;-4.386;2022-10-16T06:24:24;12.89;85.60
73547;SHT30;61807;48.384;-4.386;2022-10-16T06:26:50;12.91;85.62
73547;SHT30;61807;48.384;-4.386;2022-10-16T06:29:15;12.91;85.58
73547;SHT30;61807;48.384;-4.386;2022-10-16T06:31:41;12.90;85.62
73547;SHT30;61807;48.384;-4.386;2022-10-16T06:34:11;12.87;85.69
73547;SHT30;61807;48.384;-4.386;2022-10-16T06:36:37;12.84;85.70
73547;SHT30;61807;48.384;-4.386;2022-10-16T06:39:04;12.83;85.70
73547;SHT30;61807;48.384;-4.386;2022-10-16T06:41:30;12.84;85.73
73547;SHT30;61807;48.384;-4.386;2022-10-16T06:43:56;12.86;85.71
73547;SHT30;61807;48.384;-4.386;2022-10-16T06:46:23;12.83;85.76
73547;SHT30;61807;48.384;-4.386;2022-10-16T06:48:49;12.81;85.78
73547;SHT30;61807;48.384;-4.386;2022-10-16T06:51:22;12.79;85.76
73547;SHT30;61807;48.384;-4.386;2022-10-16T06:53:50;12.76;85.83
73547;SHT30;61807;48.384;-4.386;2022-10-16T06:56:27;12.76;85.83
73547;SHT30;61807;48.384;-4.386;2022-10-16T06:58:54;12.76;85.88
73547;SHT30;61807;48.384;-4.386;2022-10-16T07:01:22;12.77;85.84
73547;SHT30;61807;48.384;-4.386;2022-10-16T07:03:48;12.72;85.89
73547;SHT30;61807;48.384;-4.386;2022-10-16T07:06:16;12.73;85.92
73547;SHT30;61807;48.384;-4.386;2022-10-16T07:08:44;12.70;86.01
73547;SHT30;61807;48.384;-4.386;2022-10-16T07:11:12;12.67;86.10
73547;SHT30;61807;48.384;-4.386;2022-10-16T07:13:40;12.70;86.07
73547;SHT30;61807;48.384;-4.386;2022-10-16T07:16:06;12.70;86.14
73547;SHT30;61807;48.384;-4.386;2022-10-16T07:18:32;12.75;86.09
73547;SHT30;61807;48.384;-4.386;2022-10-16T07:21:18;12.79;86.08
73547;SHT30;61807;48.384;-4.386;2022-10-16T07:23:44;12.81;86.09
73547;SHT30;61807;48.384;-4.386;2022-10-16T07:26:10;12.83;86.11
73547;SHT30;61807;48.384;-4.386;2022-10-16T07:28:36;12.86;86.09
73547;SHT30;61807;48.384;-4.386;2022-10-16T07:31:07;12.93;86.04
73547;SHT30;61807;48.384;-4.386;2022-10-16T07:33:34;12.97;85.96
73547;SHT30;61807;48.384;-4.386;2022-10-16T07:36:00;13.01;85.98
73547;SHT30;61807;48.384;-4.386;2022-10-16T07:38:25;13.06;85.88
73547;SHT30;61807;48.384;-4.386;2022-10-16T07:40:59;13.01;85.96
73547;SHT30;61807;48.384;-4.386;2022-10-16T07:43:25;13.04;86.04
73547;SHT30;61807;48.384;-4.386;2022-10-16T07:45:51;13.04;86.13
73547;SHT30;61807;48.384;-4.386;2022-10-16T07:48:17;13.06;86.13
73547;SHT30;61807;48.384;-4.386;2022-10-16T07:50:44;13.08;86.13
73547;SHT30;61807;48.384;-4.386;2022-10-16T07:53:10;13.15;86.19
73547;SHT30;61807;48.384;-4.386;2022-10-16T07:55:35;13.20;86.22
73547;SHT30;61807;48.384;-4.386;2022-10-16T07:58:01;13.25;86.21
73547;SHT30;61807;48.384;-4.386;2022-10-16T08:00:26;13.34;86.21
73547;SHT30;61807;48.384;-4.386;2022-10-16T08:02:52;13.34;86.13
73547;SHT30;61807;48.384;-4.386;2022-10-16T08:05:17;13.42;86.13
73547;SHT30;61807;48.384;-4.386;2022-10-16T08:07:42;13.49;86.05
73547;SHT30;61807;48.384;-4.386;2022-10-16T08:10:16;13.57;85.94
73547;SHT30;61807;48.384;-4.386;2022-10-16T08:12:42;13.61;85.94
73547;SHT30;61807;48.384;-4.386;2022-10-16T08:15:08;13.69;85.92
73547;SHT30;61807;48.384;-4.386;2022-10-16T08:17:33;13.82;85.88
73547;SHT30;61807;48.384;-4.386;2022-10-16T08:19:59;13.91;85.75
73547;SHT30;61807;48.384;-4.386;2022-10-16T08:22:24;14.00;85.72
73547;SHT30;61807;48.384;-4.386;2022-10-16T08:24:49;14.09;85.61
73547;SHT30;61807;48.384;-4.386;2022-10-16T08:27:15;14.16;85.52
73547;SHT30;61807;48.384;-4.386;2022-10-16T08:29:40;14.21;85.44
73547;SHT30;61807;48.384;-4.386;2022-10-16T08:32:06;14.23;85.25
73547;SHT30;61807;48.384;-4.386;2022-10-16T08:34:31;14.26;85.31
73547;SHT30;61807;48.384;-4.386;2022-10-16T08:36:56;14.26;85.32
73547;SHT30;61807;48.384;-4.386;2022-10-16T08:39:22;14.33;85.31
73547;SHT30;61807;48.384;-4.386;2022-10-16T08:42:08;14.38;85.26
73547;SHT30;61807;48.384;-4.386;2022-10-16T08:47:49;14.45;85.07
73547;SHT30;61807;48.384;-4.386;2022-10-16T08:50:26;14.45;85.08
73547;SHT30;61807;48.384;-4.386;2022-10-16T08:52:53;14.45;85.17
73547;SHT30;61807;48.384;-4.386;2022-10-16T08:58:17;14.58;85.22
73547;SHT30;61807;48.384;-4.386;2022-10-16T09:00:46;14.67;85.13
73547;SHT30;61807;48.384;-4.386;2022-10-16T09:06:10;14.82;84.97
73547;SHT30;61807;48.384;-4.386;2022-10-16T09:22:43;15.15;84.63
73547;SHT30;61807;48.384;-4.386;2022-10-16T09:25:18;15.19;84.53
73547;SHT30;61807;48.384;-4.386;2022-10-16T09:27:48;15.25;84.45
73547;SHT30;61807;48.384;-4.386;2022-10-16T09:30:19;15.27;84.38
73547;SHT30;61807;48.384;-4.386;2022-10-16T09:32:47;15.29;84.33
73547;SHT30;61807;48.384;-4.386;2022-10-16T09:35:18;15.29;84.37
73547;SHT30;61807;48.384;-4.386;2022-10-16T09:37:48;15.30;84.30
73547;SHT30;61807;48.384;-4.386;2022-10-16T09:40:25;15.35;84.12
73547;SHT30;61807;48.384;-4.386;2022-10-16T09:43:01;15.32;84.17
73547;SHT30;61807;48.384;-4.386;2022-10-16T09:45:27;15.32;84.10
73547;SHT30;61807;48.384;-4.386;2022-10-16T09:47:53;15.26;83.94
73547;SHT30;61807;48.384;-4.386;2022-10-16T09:50:26;15.23;84.04
73547;SHT30;61807;48.384;-4.386;2022-10-16T09:55:30;15.22;84.01
73547;SHT30;61807;48.384;-4.386;2022-10-16T09:57:55;15.25;83.99
73547;SHT30;61807;48.384;-4.386;2022-10-16T10:00:22;15.26;84.04
73547;SHT30;61807;48.384;-4.386;2022-10-16T10:02:48;15.27;84.10
73547;SHT30;61807;48.384;-4.386;2022-10-16T10:05:23;15.30;84.09
73547;SHT30;61807;48.384;-4.386;2022-10-16T10:08:03;15.32;84.15
73547;SHT30;61807;48.384;-4.386;2022-10-16T10:10:33;15.33;84.04
73547;SHT30;61807;48.384;-4.386;2022-10-16T10:12:59;15.32;83.94
73547;SHT30;61807;48.384;-4.386;2022-10-16T10:15:27;15.32;84.07
73547;SHT30;61807;48.384;-4.386;2022-10-16T10:17:56;15.35;84.08
73547;SHT30;61807;48.384;-4.386;2022-10-16T10:20:27;15.35;84.10
73547;SHT30;61807;48.384;-4.386;2022-10-16T10:22:54;15.37;84.13
73547;SHT30;61807;48.384;-4.386;2022-10-16T10:28:24;15.39;84.19
73547;SHT30;61807;48.384;-4.386;2022-10-16T10:31:10;15.40;84.18
73547;SHT30;61807;48.384;-4.386;2022-10-16T10:36:36;15.42;84.17
73547;SHT30;61807;48.384;-4.386;2022-10-16T10:39:15;15.44;84.32
73547;SHT30;61807;48.384;-4.386;2022-10-16T10:55:57;15.54;84.45
73547;SHT30;61807;48.384;-4.386;2022-10-16T11:01:15;15.68;84.45
73547;SHT30;61807;48.384;-4.386;2022-10-16T11:06:42;15.75;84.34
73547;SHT30;61807;48.384;-4.386;2022-10-16T11:09:13;15.81;84.30
73547;SHT30;61807;48.384;-4.386;2022-10-16T11:11:46;15.78;84.34
73547;SHT30;61807;48.384;-4.386;2022-10-16T11:16:52;15.88;84.29
73547;SHT30;61807;48.384;-4.386;2022-10-16T11:22:14;15.95;84.24
73547;SHT30;61807;48.384;-4.386;2022-10-16T11:25:33;15.98;84.32
73547;SHT30;61807;48.384;-4.386;2022-10-16T11:27:55;16.00;84.32
73547;SHT30;61807;48.384;-4.386;2022-10-16T11:30:25;16.04;84.42
73547;SHT30;61807;48.384;-4.386;2022-10-16T11:38:43;16.21;84.49
73547;SHT30;61807;48.384;-4.386;2022-10-16T11:49:32;16.59;84.34
73547;SHT30;61807;48.384;-4.386;2022-10-16T11:52:19;16.69;84.29
73547;SHT30;61807;48.384;-4.386;2022-10-16T11:54:54;16.77;84.29
73547;SHT30;61807;48.384;-4.386;2022-10-16T11:57:24;16.83;84.21
73547;SHT30;61807;48.384;-4.386;2022-10-16T12:05:40;17.06;83.97
73547;SHT30;61807;48.384;-4.386;2022-10-16T12:08:13;17.04;83.87
73547;SHT30;61807;48.384;-4.386;2022-10-16T12:10:43;17.06;83.92
73547;SHT30;61807;48.384;-4.386;2022-10-16T12:13:37;17.08;83.94
73547;SHT30;61807;48.384;-4.386;2022-10-16T12:16:20;17.12;83.85
73547;SHT30;61807;48.384;-4.386;2022-10-16T12:18:47;17.20;83.86
73547;SHT30;61807;48.384;-4.386;2022-10-16T12:21:14;17.17;83.76
73547;SHT30;61807;48.384;-4.386;2022-10-16T12:23:51;17.17;83.87
73547;SHT30;61807;48.384;-4.386;2022-10-16T12:26:28;17.15;83.94
73547;SHT30;61807;48.384;-4.386;2022-10-16T12:28:55;17.21;84.07
73547;SHT30;61807;48.384;-4.386;2022-10-16T12:31:21;17.25;84.14
73547;SHT30;61807;48.384;-4.386;2022-10-16T12:33:59;17.34;84.07
73547;SHT30;61807;48.384;-4.386;2022-10-16T12:36:31;17.41;84.09
73547;SHT30;61807;48.384;-4.386;2022-10-16T12:38:57;17.38;83.88
73547;SHT30;61807;48.384;-4.386;2022-10-16T12:41:36;17.38;84.06
73547;SHT30;61807;48.384;-4.386;2022-10-16T12:44:20;17.41;84.23
73547;SHT30;61807;48.384;-4.386;2022-10-16T12:46:46;17.42;84.20
73547;SHT30;61807;48.384;-4.386;2022-10-16T12:51:37;17.51;84.27
73547;SHT30;61807;48.384;-4.386;2022-10-16T12:54:15;17.49;84.30
73547;SHT30;61807;48.384;-4.386;2022-10-16T12:57:32;17.55;84.38
73547;SHT30;61807;48.384;-4.386;2022-10-16T13:02:58;17.66;84.36
73547;SHT30;61807;48.384;-4.386;2022-10-16T13:16:23;17.80;85.01
73547;SHT30;61807;48.384;-4.386;2022-10-16T13:29:45;18.07;84.88
73547;SHT30;61807;48.384;-4.386;2022-10-16T13:32:17;18.14;84.90
73547;SHT30;61807;48.384;-4.386;2022-10-16T13:34:46;18.21;84.76
73547;SHT30;61807;48.384;-4.386;2022-10-16T13:37:21;18.27;84.61
73547;SHT30;61807;48.384;-4.386;2022-10-16T13:39:47;18.31;84.57
73547;SHT30;61807;48.384;-4.386;2022-10-16T13:42:18;18.37;84.51
73547;SHT30;61807;48.384;-4.386;2022-10-16T13:44:51;18.40;84.32
73547;SHT30;61807;48.384;-4.386;2022-10-16T13:47:17;18.38;84.33
73547;SHT30;61807;48.384;-4.386;2022-10-16T13:49:43;18.41;84.40
73547;SHT30;61807;48.384;-4.386;2022-10-16T13:52:18;18.44;84.23
73547;SHT30;61807;48.384;-4.386;2022-10-16T13:54:44;18.44;84.20
73547;SHT30;61807;48.384;-4.386;2022-10-16T13:57:13;18.43;84.27
73547;SHT30;61807;48.384;-4.386;2022-10-16T13:59:39;18.44;84.20
73547;SHT30;61807;48.384;-4.386;2022-10-16T14:02:34;18.44;84.08
73547;SHT30;61807;48.384;-4.386;2022-10-16T14:05:02;18.45;84.16
73547;SHT30;61807;48.384;-4.386;2022-10-16T14:07:31;18.47;83.99
73547;SHT30;61807;48.384;-4.386;2022-10-16T14:10:06;18.45;84.04
73547;SHT30;61807;48.384;-4.386;2022-10-16T14:12:32;18.45;84.05
73547;SHT30;61807;48.384;-4.386;2022-10-16T14:15:00;18.45;83.98
73547;SHT30;61807;48.384;-4.386;2022-10-16T14:17:28;18.47;84.03
73547;SHT30;61807;48.384;-4.386;2022-10-16T14:19:57;18.44;83.97
73547;SHT30;61807;48.384;-4.386;2022-10-16T14:24:59;18.40;83.91
73547;SHT30;61807;48.384;-4.386;2022-10-16T14:27:36;18.41;84.01
73547;SHT30;61807;48.384;-4.386;2022-10-16T14:30:19;18.41;84.03
73547;SHT30;61807;48.384;-4.386;2022-10-16T14:32:58;18.37;84.04
73547;SHT30;61807;48.384;-4.386;2022-10-16T14:35:33;18.37;84.04
73547;SHT30;61807;48.384;-4.386;2022-10-16T14:38:00;18.36;84.21
73547;SHT30;61807;48.384;-4.386;2022-10-16T14:40:32;18.33;84.14
73547;SHT30;61807;48.384;-4.386;2022-10-16T14:42:59;18.30;84.23
73547;SHT30;61807;48.384;-4.386;2022-10-16T14:45:28;18.28;84.23
73547;SHT30;61807;48.384;-4.386;2022-10-16T14:47:57;18.26;84.26
73547;SHT30;61807;48.384;-4.386;2022-10-16T14:50:23;18.23;84.32
73547;SHT30;61807;48.384;-4.386;2022-10-16T14:52:49;18.23;84.29
73547;SHT30;61807;48.384;-4.386;2022-10-16T14:55:15;18.23;84.32
73547;SHT30;61807;48.384;-4.386;2022-10-16T14:57:42;18.23;84.30
73547;SHT30;61807;48.384;-4.386;2022-10-16T15:00:15;18.17;84.32
73547;SHT30;61807;48.384;-4.386;2022-10-16T15:02:42;18.14;84.44
73547;SHT30;61807;48.384;-4.386;2022-10-16T15:05:19;18.14;84.45
73547;SHT30;61807;48.384;-4.386;2022-10-16T15:07:45;18.11;84.46
73547;SHT30;61807;48.384;-4.386;2022-10-16T15:10:12;18.09;84.52
73547;SHT30;61807;48.384;-4.386;2022-10-16T15:12:37;18.11;84.50
73547;SHT30;61807;48.384;-4.386;2022-10-16T15:17:41;18.10;84.52
73547;SHT30;61807;48.384;-4.386;2022-10-16T15:20:06;18.04;84.60
73547;SHT30;61807;48.384;-4.386;2022-10-16T15:22:32;18.03;84.70
73547;SHT30;61807;48.384;-4.386;2022-10-16T15:24:57;18.01;84.81
73547;SHT30;61807;48.384;-4.386;2022-10-16T15:27:23;17.97;84.85
73547;SHT30;61807;48.384;-4.386;2022-10-16T15:29:48;17.94;85.17
73547;SHT30;61807;48.384;-4.386;2022-10-16T15:32:13;17.93;85.06
73547;SHT30;61807;48.384;-4.386;2022-10-16T15:34:39;17.92;85.11
73547;SHT30;61807;48.384;-4.386;2022-10-16T15:37:04;17.93;85.14
73547;SHT30;61807;48.384;-4.386;2022-10-16T15:39:29;17.90;85.23
73547;SHT30;61807;48.384;-4.386;2022-10-16T15:41:55;17.90;85.26
73547;SHT30;61807;48.384;-4.386;2022-10-16T15:44:21;17.89;85.29
73547;SHT30;61807;48.384;-4.386;2022-10-16T15:46:48;17.86;85.33
73547;SHT30;61807;48.384;-4.386;2022-10-16T15:49:13;17.86;85.28
73547;SHT30;61807;48.384;-4.386;2022-10-16T15:51:40;17.85;85.42
73547;SHT30;61807;48.384;-4.386;2022-10-16T15:54:07;17.86;85.87
73547;SHT30;61807;48.384;-4.386;2022-10-16T15:56:32;17.82;85.66
73547;SHT30;61807;48.384;-4.386;2022-10-16T15:59:01;17.86;85.67
73547;SHT30;61807;48.384;-4.386;2022-10-16T16:01:27;17.82;85.67
73547;SHT30;61807;48.384;-4.386;2022-10-16T16:03:55;17.83;85.78
73547;SHT30;61807;48.384;-4.386;2022-10-16T16:06:21;17.82;85.79
73547;SHT30;61807;48.384;-4.386;2022-10-16T16:08:49;17.82;86.02
73547;SHT30;61807;48.384;-4.386;2022-10-16T16:11:16;17.80;85.83
73547;SHT30;61807;48.384;-4.386;2022-10-16T16:13:42;17.82;85.83
73547;SHT30;61807;48.384;-4.386;2022-10-16T16:16:13;17.83;85.92
73547;SHT30;61807;48.384;-4.386;2022-10-16T16:18:39;17.82;85.92
73547;SHT30;61807;48.384;-4.386;2022-10-16T16:21:05;17.83;85.91
73547;SHT30;61807;48.384;-4.386;2022-10-16T16:23:31;17.82;85.94
73547;SHT30;61807;48.384;-4.386;2022-10-16T16:26:22;17.82;85.98
73547;SHT30;61807;48.384;-4.386;2022-10-16T16:28:52;17.82;85.97
73547;SHT30;61807;48.384;-4.386;2022-10-16T16:31:18;17.79;86.08
73547;SHT30;61807;48.384;-4.386;2022-10-16T16:33:43;17.78;86.10
73547;SHT30;61807;48.384;-4.386;2022-10-16T16:36:09;17.75;86.29
73547;SHT30;61807;48.384;-4.386;2022-10-16T16:38:34;17.76;86.30
73547;SHT30;61807;48.384;-4.386;2022-10-16T16:41:14;17.76;86.30
73547;SHT30;61807;48.384;-4.386;2022-10-16T16:43:39;17.75;86.34
73547;SHT30;61807;48.384;-4.386;2022-10-16T16:46:05;17.76;86.38
73547;SHT30;61807;48.384;-4.386;2022-10-16T16:48:31;17.75;86.28
73547;SHT30;61807;48.384;-4.386;2022-10-16T16:50:57;17.75;86.50
73547;SHT30;61807;48.384;-4.386;2022-10-16T16:53:27;17.72;86.43
73547;SHT30;61807;48.384;-4.386;2022-10-16T16:55:52;17.73;86.44
73547;SHT30;61807;48.384;-4.386;2022-10-16T16:58:17;17.72;86.45
73547;SHT30;61807;48.384;-4.386;2022-10-16T17:00:46;17.70;86.61
73547;SHT30;61807;48.384;-4.386;2022-10-16T17:03:11;17.69;86.48
73547;SHT30;61807;48.384;-4.386;2022-10-16T17:05:37;17.70;86.50
73547;SHT30;61807;48.384;-4.386;2022-10-16T17:08:06;17.73;86.55
73547;SHT30;61807;48.384;-4.386;2022-10-16T17:10:32;17.72;86.51
73547;SHT30;61807;48.384;-4.386;2022-10-16T17:12:57;17.70;86.61
73547;SHT30;61807;48.384;-4.386;2022-10-16T17:15:23;17.69;86.57
73547;SHT30;61807;48.384;-4.386;2022-10-16T17:17:48;17.68;86.55
73547;SHT30;61807;48.384;-4.386;2022-10-16T17:20:14;17.68;86.60
73547;SHT30;61807;48.384;-4.386;2022-10-16T17:22:40;17.68;86.63
73547;SHT30;61807;48.384;-4.386;2022-10-16T17:25:05;17.66;86.59